Time;durP1;ratioP1;P1;durP2;ratioP2;P2;SDS_P1;SDS_P2;PMS_P1;PMS_P2;Temp;Humidity;BMP_temperature;BMP_pressure;BME280_temperature;BME280_humidity;BME280_pressure;Samples;Min_cycle;Max_cycle;Signal;HPM_P1;HPM_P2
2022/10/05 00:00:16;;;;;;;;;;;15.30;99.90;;;;;;5054523;28;20049;-72
2022/10/05 00:02:42;;;;;;;4.40;3.63;;;15.40;99.90;;;;;;5042827;28;19920;-72
2022/10/05 00:05:16;;;;;;;;;;;15.40;99.90;;;;;;5061061;28;20049;-72
2022/10/05 00:07:42;;;;;;;4.25;2.70;;;15.40;99.90;;;;;;5051985;28;20323;-71
2022/10/05 00:10:14;;;;;;;3.13;2.53;;;15.40;99.90;;;;;;5044616;28;20136;-72
2022/10/05 00:12:42;;;;;;;3.08;2.25;;;15.30;99.90;;;;;;5052362;28;20127;-73
2022/10/05 00:15:11;;;;;;;2.88;2.30;;;15.40;99.90;;;;;;5039032;28;20470;-72
2022/10/05 00:17:36;;;;;;;3.42;2.58;;;15.30;99.90;;;;;;5051394;28;20052;-71
2022/10/05 00:20:21;;;;;;;3.33;2.70;;;15.40;99.90;;;;;;5058518;28;20512;-72
2022/10/05 00:22:49;;;;;;;2.78;2.40;;;15.30;99.90;;;;;;5042734;28;20131;-72
2022/10/05 00:25:19;;;;;;;2.50;2.30;;;15.30;99.90;;;;;;5063880;28;20049;-71
2022/10/05 00:27:55;;;;;;;2.70;2.30;;;15.30;99.90;;;;;;5059015;28;20033;-71
2022/10/05 00:30:22;;;;;;;3.47;2.57;;;15.40;99.90;;;;;;5052488;28;20054;-72
2022/10/05 00:32:48;;;;;;;3.10;2.63;;;15.30;99.90;;;;;;5034956;28;20124;-72
2022/10/05 00:35:15;;;;;;;2.72;2.47;;;15.40;99.90;;;;;;5052202;28;20336;-72
2022/10/05 00:37:42;;;;;;;3.33;2.50;;;15.30;99.90;;;;;;5054522;28;20033;-72
2022/10/05 00:40:39;;;;;;;3.33;2.53;;;15.40;99.90;;;;;;5064248;28;20067;-73
2022/10/05 00:43:24;;;;;;;3.75;2.75;;;15.30;99.90;;;;;;5062715;28;20059;-72
2022/10/05 00:46:29;;;;;;;5.93;2.97;;;15.30;99.90;;;;;;5053908;28;20098;-72
2022/10/05 00:49:12;;;;;;;3.78;2.20;;;15.30;99.90;;;;;;4996891;28;20080;-72
2022/10/05 00:51:40;;;;;;;3.55;2.42;;;15.30;99.90;;;;;;5050260;28;20076;-72
2022/10/05 00:54:30;;;;;;;3.45;2.20;;;15.30;99.90;;;;;;5052073;28;20102;-72
2022/10/05 00:57:07;;;;;;;2.78;2.20;;;15.20;99.90;;;;;;5059559;28;20153;-73
2022/10/05 00:59:33;;;;;;;5.78;2.65;;;15.30;99.90;;;;;;5067186;28;20051;-72
2022/10/05 01:02:06;;;;;;;2.60;2.25;;;15.20;99.90;;;;;;5044595;28;20044;-72
2022/10/05 01:04:44;;;;;;;3.22;2.45;;;15.30;99.90;;;;;;5056026;28;20507;-72
2022/10/05 01:07:37;;;;;;;3.75;2.53;;;15.30;99.90;;;;;;5066456;28;20530;-72
2022/10/05 01:10:08;;;;;;;2.75;2.20;;;15.30;99.90;;;;;;5050330;28;20036;-72
2022/10/05 01:13:07;;;;;;;2.13;1.73;;;15.20;99.90;;;;;;5061513;28;20412;-72
2022/10/05 01:15:45;;;;;;;2.65;1.80;;;15.30;99.90;;;;;;5053174;28;20580;-72
2022/10/05 01:18:20;;;;;;;3.00;1.67;;;15.30;99.90;;;;;;5064634;28;20102;-72
2022/10/05 01:20:57;;;;;;;3.20;2.20;;;15.30;99.90;;;;;;5064198;28;20480;-72
2022/10/05 01:23:45;;;;;;;3.15;2.25;;;15.30;99.90;;;;;;5068207;28;20048;-72
2022/10/05 01:26:13;;;;;;;3.28;1.92;;;15.30;99.90;;;;;;5057764;28;20495;-72
2022/10/05 01:28:55;;;;;;;2.17;1.77;;;15.40;99.90;;;;;;5032275;28;20118;-72
2022/10/05 01:31:32;;;;;;;4.65;2.33;;;15.40;99.90;;;;;;5050999;28;20189;-72
2022/10/05 01:34:10;;;;;;;3.05;2.10;;;15.40;99.90;;;;;;5056835;28;20233;-72
2022/10/05 01:36:57;;;;;;;2.60;2.05;;;15.30;99.90;;;;;;5047593;28;20109;-72
2022/10/05 01:39:53;;;;;;;3.22;2.17;;;15.30;99.90;;;;;;5065411;28;20129;-72
2022/10/05 01:42:46;;;;;;;2.78;2.08;;;15.30;99.90;;;;;;5032708;28;20056;-73
2022/10/05 01:45:34;;;;;;;2.30;1.90;;;15.40;99.90;;;;;;5036320;28;20044;-72
2022/10/05 01:48:26;;;;;;;3.20;2.03;;;15.30;99.90;;;;;;5054644;28;20041;-72
2022/10/05 01:51:10;;;;;;;3.55;1.80;;;15.30;99.90;;;;;;5042809;28;20056;-72
2022/10/05 01:53:56;;;;;;;2.50;1.80;;;15.20;99.90;;;;;;5045911;28;20067;-72
2022/10/05 01:56:31;;;;;;;2.35;1.83;;;15.30;99.90;;;;;;5054886;28;20052;-72
2022/10/05 01:59:34;;;;;;;2.85;1.98;;;15.40;99.90;;;;;;5051645;28;20044;-72
2022/10/05 02:02:06;;;;;;;2.78;2.08;;;15.30;99.90;;;;;;5048874;28;20049;-72
2022/10/05 02:04:40;;;;;;;2.05;1.63;;;15.30;99.90;;;;;;5049185;28;20037;-72
2022/10/05 02:07:15;;;;;;;3.03;2.17;;;15.30;99.90;;;;;;5036693;28;20064;-72
2022/10/05 02:10:04;;;;;;;2.70;2.15;;;15.30;99.90;;;;;;5050205;28;20044;-72
2022/10/05 02:12:35;;;;;;;3.35;2.17;;;15.20;99.90;;;;;;5048983;28;20037;-72
2022/10/05 02:15:10;;;;;;;3.38;2.00;;;15.30;99.90;;;;;;5035474;28;20392;-72
2022/10/05 02:17:43;;;;;;;4.03;2.35;;;15.20;99.90;;;;;;5042727;28;20072;-72
2022/10/05 02:20:13;;;;;;;2.65;1.77;;;15.20;99.90;;;;;;5055585;28;20032;-72
2022/10/05 02:22:50;;;;;;;2.95;1.90;;;15.20;99.90;;;;;;5051578;28;20043;-72
2022/10/05 02:25:28;;;;;;;2.70;2.05;;;15.10;99.90;;;;;;5062772;28;20048;-72
2022/10/05 02:28:00;;;;;;;2.78;2.20;;;15.10;99.90;;;;;;5067275;28;20502;-72
2022/10/05 02:30:29;;;;;;;3.33;1.98;;;15.20;99.90;;;;;;5062450;28;20078;-72
2022/10/05 02:33:00;;;;;;;2.33;1.75;;;15.10;99.90;;;;;;5050266;28;20044;-72
2022/10/05 02:35:26;;;;;;;3.22;2.00;;;15.10;99.90;;;;;;5072731;28;20056;-72
2022/10/05 02:38:03;;;;;;;5.30;2.40;;;15.00;99.90;;;;;;5072174;28;20394;-72
2022/10/05 02:40:32;;;;;;;2.30;1.85;;;15.00;99.90;;;;;;5061451;28;20051;-73
2022/10/05 02:43:16;;;;;;;5.15;2.40;;;15.00;99.90;;;;;;5064724;28;20060;-72
2022/10/05 02:46:00;;;;;;;4.10;2.47;;;15.20;99.90;;;;;;5038749;28;20512;-72
2022/10/05 02:48:34;;;;;;;2.38;1.88;;;15.10;99.90;;;;;;5052330;28;20113;-72
2022/10/05 02:51:14;;;;;;;4.22;2.30;;;15.10;99.90;;;;;;5051240;28;20110;-72
2022/10/05 02:54:01;;;;;;;2.78;2.10;;;15.20;99.90;;;;;;5053201;28;20431;-73
2022/10/05 02:56:59;;;;;;;3.28;2.15;;;15.10;99.90;;;;;;5059956;28;20068;-72
2022/10/05 02:59:33;;;;;;;2.40;1.90;;;15.10;99.90;;;;;;5050653;28;20106;-72
2022/10/05 03:02:21;;;;;;;2.00;1.63;;;15.20;99.90;;;;;;5052694;28;20468;-72
2022/10/05 03:05:15;;;;;;;3.78;2.70;;;15.20;99.90;;;;;;5077724;28;20051;-72
2022/10/05 03:08:01;;;;;;;2.60;2.30;;;15.10;99.90;;;;;;5075132;28;20040;-72
2022/10/05 03:10:46;;;;;;;2.35;2.08;;;15.10;99.90;;;;;;5072602;28;20047;-72
2022/10/05 03:13:38;;;;;;;2.45;1.83;;;15.10;99.90;;;;;;5070581;28;20054;-72
2022/10/05 03:16:10;;;;;;;2.10;1.70;;;15.20;99.90;;;;;;5052903;28;20072;-72
2022/10/05 03:19:01;;;;;;;2.58;1.52;;;15.10;99.90;;;;;;5052740;28;20443;-72
2022/10/05 03:21:56;;;;;;;2.88;1.90;;;15.10;99.90;;;;;;5062250;28;20597;-72
2022/10/05 03:24:46;;;;;;;2.22;2.03;;;15.10;99.90;;;;;;4986705;28;20049;-72
2022/10/05 03:27:21;;;;;;;2.90;1.90;;;15.10;99.90;;;;;;5050535;28;20411;-72
2022/10/05 03:30:12;;;;;;;1.75;1.55;;;15.10;99.90;;;;;;5064456;28;20052;-72
2022/10/05 03:33:06;;;;;;;4.97;2.03;;;15.20;99.90;;;;;;5051800;28;20098;-72
2022/10/05 03:35:39;;;;;;;3.00;1.77;;;15.10;99.90;;;;;;5060424;28;20048;-72
2022/10/05 03:38:26;;;;;;;2.38;1.90;;;15.10;99.90;;;;;;5065671;28;20127;-72
2022/10/05 03:41:21;;;;;;;2.83;1.80;;;15.20;99.90;;;;;;5057269;28;20398;-72
2022/10/05 03:44:06;;;;;;;3.25;2.08;;;15.00;99.90;;;;;;5059250;28;20399;-73
2022/10/05 03:47:00;;;;;;;2.78;1.85;;;15.20;99.90;;;;;;5039164;28;20050;-72
2022/10/05 03:49:48;;;;;;;2.80;1.80;;;15.20;99.90;;;;;;5055029;28;20060;-72
2022/10/05 03:52:38;;;;;;;2.75;1.50;;;15.20;99.90;;;;;;5059280;28;20048;-72
2022/10/05 03:55:29;;;;;;;1.98;1.67;;;15.20;99.90;;;;;;5038803;28;20037;-72
2022/10/05 03:57:59;;;;;;;1.63;1.50;;;15.10;99.90;;;;;;5072004;28;20044;-72
2022/10/05 04:00:26;;;;;;;2.53;1.40;;;15.20;99.90;;;;;;5070686;28;20046;-72
2022/10/05 04:02:59;;;;;;;2.20;1.50;;;15.10;99.90;;;;;;5045470;28;20075;-72
2022/10/05 04:05:36;;;;;;;2.05;1.50;;;15.10;99.90;;;;;;5063130;28;20131;-72
2022/10/05 04:08:11;;;;;;;1.70;1.40;;;15.10;99.90;;;;;;5067413;28;20036;-72
2022/10/05 04:10:50;;;;;;;1.70;1.40;;;15.10;99.90;;;;;;5054020;28;20165;-72
2022/10/05 04:13:33;;;;;;;2.30;1.77;;;15.10;99.90;;;;;;5066648;28;20047;-72
2022/10/05 04:16:23;;;;;;;2.53;1.65;;;15.10;99.90;;;;;;5062328;28;20040;-72
2022/10/05 04:19:10;;;;;;;2.78;2.00;;;15.10;99.90;;;;;;5039328;28;20032;-72
2022/10/05 04:21:52;;;;;;;4.30;2.45;;;15.10;99.90;;;;;;5061649;28;20063;-72
2022/10/05 04:24:28;;;;;;;3.33;2.53;;;15.10;99.90;;;;;;5069245;28;20384;-72
2022/10/05 04:26:59;;;;;;;2.95;2.00;;;15.00;99.90;;;;;;5069792;28;20040;-71
2022/10/05 04:29:46;;;;;;;2.42;1.75;;;15.10;99.90;;;;;;5053710;28;20483;-71
2022/10/05 04:32:14;;;;;;;3.90;2.13;;;15.00;99.90;;;;;;5039114;28;20040;-71
2022/10/05 04:34:52;;;;;;;3.63;2.33;;;15.00;99.90;;;;;;5073848;28;20500;-71
2022/10/05 04:37:34;;;;;;;2.70;2.00;;;15.10;99.90;;;;;;5065870;28;20071;-71
2022/10/05 04:40:39;;;;;;;2.95;2.10;;;15.10;99.90;;;;;;5053325;28;20636;-71
2022/10/05 04:43:08;;;;;;;3.88;2.08;;;15.10;99.90;;;;;;5059281;28;20091;-79
2022/10/05 04:45:52;;;;;;;2.65;2.20;;;15.10;99.90;;;;;;5041183;28;20115;-79
2022/10/05 04:48:47;;;;;;;3.25;2.30;;;15.10;99.90;;;;;;5062608;28;20075;-81
2022/10/05 04:51:34;;;;;;;2.33;1.95;;;14.90;99.90;;;;;;5062741;28;20036;-80
2022/10/05 04:54:18;;;;;;;3.40;2.10;;;15.00;99.90;;;;;;5062297;28;20047;-80
2022/10/05 04:56:49;;;;;;;3.40;2.17;;;14.90;99.90;;;;;;5044996;28;20052;-80
2022/10/05 04:59:30;;;;;;;3.13;2.30;;;14.90;99.90;;;;;;5060674;28;20048;-79
2022/10/05 05:02:23;;;;;;;3.13;2.40;;;15.00;99.90;;;;;;5061923;28;20136;-79
2022/10/05 05:05:00;;;;;;;2.92;2.35;;;15.00;99.90;;;;;;5062752;28;20032;-80
2022/10/05 05:07:45;;;;;;;;;;;15.00;99.90;;;;;;5063467;28;20089;-79
2022/10/05 05:10:32;;;;;;;3.38;2.72;;;15.00;99.90;;;;;;5076692;28;20326;-79
2022/10/05 05:13:16;;;;;;;4.22;3.03;;;14.90;99.90;;;;;;5059074;28;20032;-79
2022/10/05 05:16:08;;;;;;;2.85;2.50;;;14.90;99.90;;;;;;5048571;28;20050;-80
2022/10/05 05:19:00;;;;;;;3.95;2.90;;;15.00;99.90;;;;;;5064096;28;20032;-79
2022/10/05 05:21:29;;;;;;;5.43;3.47;;;15.00;99.90;;;;;;5066341;28;20063;-79
2022/10/05 05:24:14;;;;;;;4.57;3.67;;;15.00;99.90;;;;;;5076420;28;20502;-79
2022/10/05 05:27:12;;;;;;;4.88;3.70;;;15.00;99.90;;;;;;5068258;28;20083;-81
2022/10/05 05:29:47;;;;;;;;;;;14.90;99.90;;;;;;4990382;28;20672;-78
2022/10/05 05:32:19;;;;;;;3.50;2.70;;;15.00;99.90;;;;;;5049614;28;20422;-79
2022/10/05 05:35:02;;;;;;;4.50;3.35;;;14.80;99.90;;;;;;5058312;28;20052;-78
2022/10/05 05:38:15;;;;;;;3.67;2.90;;;14.90;99.90;;;;;;5062572;28;20051;-78
2022/10/05 05:40:49;;;;;;;5.50;3.83;;;14.90;99.90;;;;;;5006324;28;20057;-79
2022/10/05 05:43:35;;;;;;;3.83;2.90;;;14.90;99.90;;;;;;5030337;28;20129;-80
2022/10/05 05:46:10;;;;;;;3.20;2.63;;;14.90;99.90;;;;;;5048047;28;20132;-80
2022/10/05 05:48:39;;;;;;;3.45;2.42;;;14.90;99.90;;;;;;5065969;28;20051;-80
2022/10/05 05:51:29;;;;;;;3.17;2.38;;;14.80;99.90;;;;;;5049593;28;20053;-79
2022/10/05 05:54:14;;;;;;;4.07;2.70;;;14.90;99.90;;;;;;5054241;28;20427;-80
2022/10/05 05:56:51;;;;;;;3.70;2.80;;;14.80;99.90;;;;;;5051064;28;20048;-80
2022/10/05 05:59:18;;;;;;;;;;;14.90;99.90;;;;;;5066451;28;20118;-73
2022/10/05 06:02:14;;;;;;;4.57;2.85;;;14.90;99.90;;;;;;5057648;28;20011;-72
2022/10/05 06:04:51;;;;;;;3.88;3.03;;;14.90;99.90;;;;;;5057781;28;20088;-71
2022/10/05 06:07:23;;;;;;;5.00;2.60;;;14.80;99.90;;;;;;5057884;28;20040;-72
2022/10/05 06:10:26;;;;;;;3.65;2.40;;;14.90;99.90;;;;;;5063648;28;20044;-72
2022/10/05 06:12:56;;;;;;;4.07;2.95;;;14.90;99.90;;;;;;5061046;28;20082;-72
2022/10/05 06:15:24;;;;;;;3.38;2.80;;;14.90;99.90;;;;;;5055609;28;20098;-72
2022/10/05 06:17:54;;;;;;;4.70;3.30;;;14.90;99.90;;;;;;5054747;28;20127;-72
2022/10/05 06:20:33;;;;;;;3.72;2.90;;;14.90;99.90;;;;;;5061151;28;20048;-73
2022/10/05 06:23:03;;;;;;;4.20;3.03;;;14.90;99.90;;;;;;5062622;28;20075;-72
2022/10/05 06:25:47;;;;;;;3.53;2.75;;;15.00;99.90;;;;;;5082636;28;20045;-74
2022/10/05 06:28:15;;;;;;;4.72;2.85;;;14.80;99.90;;;;;;5059272;28;20048;-72
2022/10/05 06:31:06;;;;;;;3.85;2.70;;;14.80;99.90;;;;;;5036759;28;20072;-73
2022/10/05 06:33:45;;;;;;;3.28;2.60;;;15.00;99.90;;;;;;5060439;28;20411;-73
2022/10/05 06:36:29;;;;;;;5.65;3.22;;;14.90;99.90;;;;;;5067732;28;20045;-72
2022/10/05 06:39:14;;;;;;;4.85;2.72;;;14.90;99.90;;;;;;5062682;28;20037;-73
2022/10/05 06:42:15;;;;;;;3.13;2.53;;;15.00;99.90;;;;;;5074952;28;20059;-72
2022/10/05 06:45:04;;;;;;;3.05;2.15;;;14.90;99.90;;;;;;5057506;28;20044;-72
2022/10/05 06:47:57;;;;;;;3.17;2.25;;;14.90;99.90;;;;;;5051494;28;20167;-73
2022/10/05 06:50:35;;;;;;;4.57;2.60;;;15.00;99.90;;;;;;5068980;28;20052;-74
2022/10/05 06:53:25;;;;;;;3.33;2.25;;;15.00;99.90;;;;;;5063546;28;20477;-73
2022/10/05 06:56:27;;;;;;;3.60;2.30;;;15.00;99.90;;;;;;5054146;28;20087;-73
2022/10/05 06:58:52;;;;;;;3.10;2.30;;;14.90;99.90;;;;;;5062669;28;20040;-72
2022/10/05 07:01:31;;;;;;;3.58;2.50;;;14.90;99.90;;;;;;5048029;28;20051;-73
2022/10/05 07:04:03;;;;;;;3.00;2.63;;;14.90;99.90;;;;;;5051429;28;20044;-73
2022/10/05 07:06:57;;;;;;;3.83;2.75;;;15.10;99.90;;;;;;5059510;28;20058;-73
2022/10/05 07:09:58;;;;;;;3.95;2.85;;;15.10;99.90;;;;;;5044137;28;20047;-73
2022/10/05 07:12:44;;;;;;;3.47;2.40;;;15.00;99.90;;;;;;5018837;28;20056;-73
2022/10/05 07:15:43;;;;;;;4.95;2.80;;;15.10;99.90;;;;;;5054911;28;20437;-73
2022/10/05 07:18:21;;;;;;;2.88;2.22;;;15.10;99.90;;;;;;5056980;28;20067;-73
2022/10/05 07:21:15;;;;;;;5.10;2.50;;;15.10;99.90;;;;;;5055362;28;20045;-73
2022/10/05 07:23:52;;;;;;;3.67;2.58;;;15.00;99.90;;;;;;5064002;28;20389;-73
2022/10/05 07:26:28;;;;;;;3.35;2.42;;;15.10;99.90;;;;;;5082036;28;20124;-73
2022/10/05 07:29:06;;;;;;;4.90;2.20;;;15.10;99.90;;;;;;5060484;28;20037;-73
2022/10/05 07:31:44;;;;;;;2.88;2.10;;;15.20;99.90;;;;;;5048949;28;20373;-73
2022/10/05 07:34:22;;;;;;;3.42;2.00;;;15.20;99.90;;;;;;5056759;28;20055;-73
2022/10/05 07:40:19;;;;;;;3.85;2.50;;;15.20;99.90;;;;;;5059531;28;20052;-72
2022/10/05 07:43:02;;;;;;;2.95;2.53;;;15.20;99.90;;;;;;5060630;28;20049;-72
2022/10/05 07:45:32;;;;;;;2.17;1.80;;;15.30;99.90;;;;;;5061978;28;20045;-73
2022/10/05 07:48:06;;;;;;;2.10;1.90;;;15.30;99.90;;;;;;5058664;28;20047;-72
2022/10/05 07:50:40;;;;;;;2.55;1.92;;;15.30;99.90;;;;;;5061258;28;20373;-73
2022/10/05 07:53:23;;;;;;;2.30;1.90;;;15.40;99.90;;;;;;5054169;28;20075;-73
2022/10/05 07:55:56;;;;;;;3.55;2.13;;;15.40;99.90;;;;;;5067207;28;20143;-72
2022/10/05 07:58:32;;;;;;;2.78;1.83;;;15.30;99.90;;;;;;5070760;28;20038;-72
2022/10/05 08:01:15;;;;;;;2.53;1.88;;;15.40;99.90;;;;;;5071089;28;20044;-72
2022/10/05 08:04:02;;;;;;;2.17;1.63;;;15.40;99.90;;;;;;5066701;28;20036;-73
2022/10/05 08:06:39;;;;;;;2.33;1.65;;;15.30;99.90;;;;;;5061020;28;20033;-73
2022/10/05 08:09:30;;;;;;;1.83;1.45;;;15.40;99.90;;;;;;5038725;28;20068;-73
2022/10/05 08:12:23;;;;;;;1.92;1.45;;;15.40;99.90;;;;;;5051725;28;20377;-75
2022/10/05 08:14:56;;;;;;;2.03;1.40;;;15.50;99.90;;;;;;5065141;28;20048;-74
2022/10/05 08:17:48;;;;;;;2.08;1.20;;;15.50;99.90;;;;;;5056420;28;20444;-75
2022/10/05 08:20:22;;;;;;;2.47;1.50;;;15.50;99.90;;;;;;5059573;28;20500;-75
2022/10/05 08:23:04;;;;;;;2.20;1.33;;;15.50;99.90;;;;;;5068213;28;20091;-74
2022/10/05 08:26:07;;;;;;;1.42;1.00;;;15.50;99.90;;;;;;5068743;28;20037;-73
2022/10/05 08:28:38;;;;;;;1.25;0.90;;;15.50;99.90;;;;;;5010683;28;20237;-73
2022/10/05 08:31:06;;;;;;;1.67;1.10;;;15.60;99.90;;;;;;5049738;28;20601;-73
2022/10/05 08:33:57;;;;;;;1.75;1.20;;;15.70;99.90;;;;;;5060629;28;20036;-73
2022/10/05 08:37:04;;;;;;;3.75;1.05;;;15.70;99.90;;;;;;5060307;28;20075;-72
2022/10/05 08:39:39;;;;;;;1.73;1.20;;;15.70;99.90;;;;;;5065566;28;20115;-73
2022/10/05 08:42:13;;;;;;;1.08;0.93;;;15.80;99.90;;;;;;5048415;28;20056;-73
2022/10/05 08:45:08;;;;;;;1.15;0.93;;;15.90;99.90;;;;;;5050206;28;20439;-72
2022/10/05 08:47:57;;;;;;;1.65;1.10;;;15.90;99.90;;;;;;5045530;28;20857;-80
2022/10/05 08:51:05;;;;;;;2.13;1.08;;;16.00;99.90;;;;;;5035690;28;20036;-79
2022/10/05 08:54:19;;;;;;;1.88;1.15;;;16.00;99.90;;;;;;5050984;28;20045;-79
2022/10/05 08:56:51;;;;;;;2.97;1.17;;;16.10;99.90;;;;;;5013878;28;20079;-80
2022/10/05 08:59:34;;;;;;;1.92;1.20;;;16.10;99.90;;;;;;5039449;28;20041;-80
2022/10/05 09:02:21;;;;;;;1.60;1.10;;;16.10;99.90;;;;;;5060367;28;20128;-79
2022/10/05 09:05:06;;;;;;;2.05;1.15;;;16.20;99.90;;;;;;5044278;28;20033;-80
2022/10/05 09:07:52;;;;;;;1.80;1.23;;;16.30;99.90;;;;;;5044656;28;20049;-81
2022/10/05 09:10:40;;;;;;;2.83;1.40;;;16.40;99.90;;;;;;5047293;28;20040;-80
2022/10/05 09:13:37;;;;;;;2.30;1.45;;;16.40;99.90;;;;;;5051293;28;20077;-81
2022/10/05 09:16:30;;;;;;;2.10;1.50;;;16.40;99.90;;;;;;5049706;28;20037;-79
2022/10/05 09:19:21;;;;;;;2.45;1.35;;;16.50;99.90;;;;;;5044224;28;20091;-81
2022/10/05 09:22:05;;;;;;;2.03;1.55;;;16.50;99.90;;;;;;5040509;28;20151;-82
2022/10/05 09:25:02;;;;;;;2.17;1.40;;;16.60;99.90;;;;;;5037804;28;20486;-82
2022/10/05 09:27:45;;;;;;;2.50;1.70;;;16.60;99.90;;;;;;5053970;28;20045;-83
2022/10/05 09:30:20;;;;;;;2.00;1.80;;;16.50;99.90;;;;;;5053820;28;20049;-82
2022/10/05 09:32:50;;;;;;;2.50;1.73;;;16.60;99.90;;;;;;5031117;28;20041;-82
2022/10/05 09:35:43;;;;;;;2.75;1.80;;;16.60;99.90;;;;;;5037374;28;20130;-82
2022/10/05 09:38:15;;;;;;;3.03;1.67;;;16.50;99.90;;;;;;5040586;28;20057;-81
2022/10/05 09:41:12;;;;;;;2.20;1.73;;;16.70;99.90;;;;;;5027401;28;20056;-83
2022/10/05 09:44:18;;;;;;;1.60;1.27;;;16.80;99.90;;;;;;5038117;28;20055;-73
2022/10/05 09:46:49;;;;;;;2.00;1.30;;;16.90;99.90;;;;;;5026285;28;20307;-81
2022/10/05 09:49:25;;;;;;;1.55;1.35;;;16.90;99.90;;;;;;5046759;28;20045;-81
2022/10/05 09:52:18;;;;;;;2.40;1.63;;;16.90;99.90;;;;;;5040168;28;20081;-81
2022/10/05 09:55:00;;;;;;;2.63;1.75;;;17.00;99.90;;;;;;5037617;28;20307;-73
2022/10/05 09:57:34;;;;;;;2.42;1.60;;;17.00;99.90;;;;;;5031234;28;20128;-73
2022/10/05 10:00:06;;;;;;;3.72;1.70;;;17.00;99.90;;;;;;5037885;28;20448;-80
2022/10/05 10:02:47;;;;;;;2.70;1.45;;;17.00;99.90;;;;;;5034892;28;20060;-73
2022/10/05 10:05:41;;;;;;;2.50;1.40;;;17.10;99.90;;;;;;5036803;28;20087;-73
2022/10/05 10:08:19;;;;;;;1.60;1.40;;;17.10;99.90;;;;;;5049128;28;20116;-74
2022/10/05 10:11:00;;;;;;;2.00;1.50;;;17.20;99.90;;;;;;5059132;28;20036;-73
2022/10/05 10:14:13;;;;;;;3.65;1.90;;;17.10;99.90;;;;;;5019366;28;20039;-73
2022/10/05 10:17:06;;;;;;;1.60;1.30;;;17.00;99.90;;;;;;5045948;28;20037;-73
2022/10/05 10:19:41;;;;;;;2.40;1.52;;;17.10;99.90;;;;;;5034104;28;20112;-72
2022/10/05 10:22:58;;;;;;;1.75;1.40;;;17.10;99.90;;;;;;5056639;28;20040;-72
2022/10/05 10:25:58;;;;;;;2.65;1.65;;;17.00;99.90;;;;;;4999280;28;20038;-72
2022/10/05 10:28:42;;;;;;;3.63;1.70;;;16.90;99.90;;;;;;5035123;28;20041;-72
2022/10/05 10:31:48;;;;;;;2.40;1.33;;;16.90;99.90;;;;;;5035415;28;20481;-72
2022/10/05 10:34:29;;;;;;;1.60;1.40;;;16.80;99.90;;;;;;5035317;28;20049;-72
2022/10/05 10:37:15;;;;;;;1.92;1.40;;;16.70;99.90;;;;;;5040283;28;20167;-72
2022/10/05 10:40:14;;;;;;;2.05;1.48;;;16.70;99.90;;;;;;5046818;28;20072;-72
2022/10/05 10:42:58;;;;;;;2.25;1.65;;;16.60;99.90;;;;;;5034414;28;20044;-72
2022/10/05 10:45:32;;;;;;;1.52;1.38;;;16.60;99.90;;;;;;5058780;28;20044;-71
2022/10/05 10:48:27;;;;;;;2.10;1.50;;;16.60;99.90;;;;;;5046752;28;20441;-79
2022/10/05 10:51:05;;;;;;;2.78;1.73;;;16.50;99.90;;;;;;5046441;28;20048;-80
2022/10/05 10:53:56;;;;;;;2.03;1.40;;;16.50;99.90;;;;;;5060700;28;20048;-73
2022/10/05 10:56:45;;;;;;;1.70;1.33;;;16.50;99.90;;;;;;5043800;28;20077;-75
2022/10/05 10:59:40;;;;;;;2.55;1.23;;;16.50;99.90;;;;;;5048748;28;20041;-74
2022/10/05 11:02:26;;;;;;;2.78;1.55;;;16.50;99.90;;;;;;5056771;28;20457;-82
2022/10/05 11:04:57;;;;;;;2.67;1.50;;;16.50;99.90;;;;;;5044527;28;20041;-80
2022/10/05 11:07:38;;;;;;;1.92;1.40;;;16.50;99.90;;;;;;5050694;28;20041;-80
2022/10/05 11:10:36;;;;;;;2.00;1.45;;;16.40;99.90;;;;;;5053670;28;20517;-79
2022/10/05 11:13:08;;;;;;;2.40;1.50;;;16.50;99.90;;;;;;5057123;28;20033;-71
2022/10/05 11:16:00;;;;;;;1.50;1.40;;;16.50;99.90;;;;;;5042912;28;20045;-71
2022/10/05 11:18:41;;;;;;;2.13;1.50;;;16.50;99.90;;;;;;5048078;28;20076;-72
2022/10/05 11:21:24;;;;;;;2.38;1.83;;;16.50;99.90;;;;;;5047997;28;20102;-70
2022/10/05 11:24:16;;;;;;;2.67;1.88;;;16.50;99.90;;;;;;5065881;28;20045;-72
2022/10/05 11:27:07;;;;;;;1.52;1.40;;;16.50;99.90;;;;;;5050786;28;20472;-72
2022/10/05 11:30:12;;;;;;;4.78;2.00;;;16.40;99.90;;;;;;5030981;28;20128;-71
2022/10/05 11:33:18;;;;;;;2.70;2.05;;;16.40;99.90;;;;;;5051423;28;20487;-71
2022/10/05 11:36:20;;;;;;;2.13;1.70;;;16.40;99.90;;;;;;5057216;28;20032;-72
2022/10/05 11:38:51;;;;;;;3.08;1.80;;;16.40;99.90;;;;;;5045939;28;20060;-71
2022/10/05 11:41:41;;;;;;;2.25;1.60;;;16.40;99.90;;;;;;5034227;28;20055;-72
2022/10/05 11:44:56;;;;;;;1.85;1.40;;;16.30;99.90;;;;;;5072371;28;20062;-72
2022/10/05 11:47:27;;;;;;;1.63;1.42;;;16.40;99.90;;;;;;5066430;28;20040;-72
2022/10/05 11:50:04;;;;;;;1.92;1.50;;;16.40;99.90;;;;;;5043744;28;20071;-72
2022/10/05 11:52:45;;;;;;;2.00;1.40;;;16.30;99.90;;;;;;5066403;28;20046;-72
2022/10/05 11:55:31;;;;;;;1.50;1.35;;;16.30;99.90;;;;;;5060261;28;20431;-72
2022/10/05 11:58:24;;;;;;;1.52;1.20;;;16.30;99.90;;;;;;5064609;28;20399;-72
2022/10/05 12:01:05;;;;;;;2.45;1.50;;;16.40;99.90;;;;;;5074287;28;20151;-72
2022/10/05 12:03:52;;;;;;;2.95;1.27;;;16.30;99.90;;;;;;5043422;28;20447;-71
2022/10/05 12:06:36;;;;;;;2.20;1.30;;;16.30;99.90;;;;;;5065837;28;20036;-72
2022/10/05 12:09:20;;;;;;;1.90;1.70;;;16.30;99.90;;;;;;5043673;28;20035;-72
2022/10/05 12:12:20;;;;;;;2.05;1.50;;;16.30;99.90;;;;;;5063557;28;20040;-72
2022/10/05 12:15:12;;;;;;;1.77;1.50;;;16.30;99.90;;;;;;5061442;28;20530;-72
2022/10/05 12:17:50;;;;;;;1.77;1.48;;;16.30;99.90;;;;;;5062487;28;20052;-72
2022/10/05 12:20:48;;;;;;;2.08;1.40;;;16.40;99.90;;;;;;5080756;28;20045;-72
2022/10/05 12:23:18;;;;;;;;;;;16.40;99.90;;;;;;5066063;28;20101;-71
2022/10/05 12:25:55;;;;;;;1.75;1.38;;;16.50;99.90;;;;;;5043603;28;19917;-72
2022/10/05 12:28:26;;;;;;;;;;;16.50;99.90;;;;;;5070627;28;20047;-71
2022/10/05 12:30:59;;;;;;;2.10;1.48;;;16.60;99.90;;;;;;5052214;28;19920;-80
2022/10/05 12:33:40;;;;;;;1.85;1.45;;;16.60;99.90;;;;;;5051919;28;20135;-72
2022/10/05 12:36:46;;;;;;;2.42;1.58;;;16.60;99.90;;;;;;5048795;28;20039;-72
2022/10/05 12:39:23;;;;;;;2.55;1.75;;;16.60;99.90;;;;;;5066558;28;20151;-72
2022/10/05 12:42:07;;;;;;;3.45;1.60;;;16.60;99.90;;;;;;5059390;28;20066;-72
2022/10/05 12:45:10;;;;;;;2.10;1.50;;;16.60;99.90;;;;;;5064022;28;20045;-71
2022/10/05 12:47:50;;;;;;;4.43;1.90;;;16.60;99.90;;;;;;5070744;28;20055;-72
2022/10/05 12:50:23;;;;;;;1.90;1.65;;;16.60;99.90;;;;;;5053770;28;20115;-72
2022/10/05 12:53:27;;;;;;;3.35;1.50;;;16.60;99.90;;;;;;5062382;28;20053;-72
2022/10/05 12:56:22;;;;;;;2.33;1.40;;;16.60;99.90;;;;;;5042941;28;20040;-71
2022/10/05 12:59:33;;;;;;;2.58;1.50;;;16.50;99.90;;;;;;5042870;28;21972;-74
2022/10/05 13:02:01;;;;;;;2.58;1.60;;;16.50;99.90;;;;;;5010537;28;20048;-73
2022/10/05 13:04:40;;;;;;;2.28;1.40;;;16.50;99.90;;;;;;5058569;28;20040;-72
2022/10/05 13:07:24;;;;;;;2.13;1.58;;;16.50;99.90;;;;;;5065326;28;20070;-72
2022/10/05 13:10:14;;;;;;;2.97;1.77;;;16.50;99.90;;;;;;5057007;28;20040;-72
2022/10/05 13:12:40;;;;;;;1.88;1.50;;;16.50;99.90;;;;;;5077784;28;20135;-74
2022/10/05 13:15:29;;;;;;;1.90;1.58;;;16.50;99.90;;;;;;5058593;28;20123;-74
2022/10/05 13:17:59;;;;;;;2.53;1.52;;;16.60;99.90;;;;;;5061315;28;20037;-73
2022/10/05 13:20:43;;;;;;;1.98;1.30;;;16.60;99.90;;;;;;5061516;28;20046;-73
2022/10/05 13:23:11;;;;;;;2.03;1.40;;;16.60;99.90;;;;;;5045664;28;20055;-73
2022/10/05 13:25:55;;;;;;;2.85;1.27;;;16.70;99.90;;;;;;5023467;28;20051;-74
2022/10/05 13:28:35;;;;;;;1.80;1.40;;;16.80;99.90;;;;;;5057840;28;20043;-74
2022/10/05 13:31:14;;;;;;;2.28;1.45;;;16.90;99.90;;;;;;5002207;28;20048;-74
2022/10/05 13:33:57;;;;;;;1.80;1.35;;;16.90;99.90;;;;;;5021716;28;20045;-74
2022/10/05 13:36:51;;;;;;;2.35;1.48;;;16.80;99.90;;;;;;5022962;28;20072;-80
2022/10/05 13:39:39;;;;;;;3.90;1.70;;;16.70;99.90;;;;;;5003608;28;20041;-82
2022/10/05 13:42:51;;;;;;;1.83;1.55;;;16.80;99.90;;;;;;5017197;28;20064;-72
2022/10/05 13:45:43;;;;;;;1.90;1.50;;;16.80;99.90;;;;;;4958789;28;20472;-72
2022/10/05 13:48:36;;;;;;;2.42;1.60;;;16.90;99.90;;;;;;5020611;28;20043;-72
2022/10/05 13:51:13;;;;;;;3.22;1.80;;;16.90;99.90;;;;;;5021089;28;20057;-72
2022/10/05 13:53:43;;;;;;;2.25;1.60;;;17.00;99.90;;;;;;5010983;28;20500;-72
2022/10/05 13:56:14;;;;;;;2.35;1.60;;;17.10;99.90;;;;;;5019803;28;20179;-71
2022/10/05 13:59:15;;;;;;;3.40;1.52;;;17.20;99.90;;;;;;5020296;28;20041;-71
2022/10/05 14:02:05;;;;;;;2.70;1.50;;;17.30;99.90;;;;;;5020709;28;20059;-71
2022/10/05 14:04:50;;;;;;;2.40;1.50;;;17.40;99.90;;;;;;5044334;28;20768;-71
2022/10/05 14:07:33;;;;;;;2.33;1.70;;;17.50;99.90;;;;;;5049952;28;20399;-71
2022/10/05 14:10:00;;;;;;;2.17;1.30;;;17.60;99.90;;;;;;5073684;28;20057;-71
2022/10/05 14:12:27;;;;;;;3.28;1.83;;;17.60;99.90;;;;;;5073950;28;20043;-73